createdAt,value
2022-11-04T06:21:43.233Z,8.50
2022-11-04T06:24:16.808Z,8.50
2022-11-04T06:26:43.833Z,8.50
2022-11-04T06:29:10.721Z,8.50
2022-11-04T06:31:37.756Z,8.50
2022-11-04T06:34:04.884Z,8.50
2022-11-04T06:36:31.765Z,8.50
2022-11-04T06:39:04.124Z,8.50
2022-11-04T06:41:32.010Z,8.50
2022-11-04T06:43:58.887Z,8.60
2022-11-04T06:46:35.921Z,8.60
2022-11-04T06:49:03.959Z,8.70
2022-11-04T06:51:31.186Z,8.70
2022-11-04T06:53:58.153Z,8.70
2022-11-04T06:56:25.154Z,8.70
2022-11-04T06:58:53.613Z,8.70
2022-11-04T07:01:22.583Z,8.80
2022-11-04T07:03:55.066Z,8.80
2022-11-04T07:06:22.913Z,8.80
2022-11-04T07:08:51.102Z,8.90
2022-11-04T07:11:20.506Z,8.90
2022-11-04T07:13:48.950Z,8.90
2022-11-04T07:16:17.852Z,9.00
2022-11-04T07:18:45.247Z,9.00
2022-11-04T07:21:12.599Z,9.00
2022-11-04T07:23:39.697Z,9.00
2022-11-04T07:26:08.351Z,9.00
2022-11-04T07:28:36.060Z,9.00
2022-11-04T07:31:04.384Z,9.00
2022-11-04T07:33:32.802Z,9.00
2022-11-04T07:36:03.672Z,9.10
2022-11-04T07:38:30.765Z,9.10
2022-11-04T07:40:58.345Z,9.10
2022-11-04T07:43:26.149Z,9.20
2022-11-04T07:46:19.574Z,9.20
2022-11-04T07:48:47.190Z,9.20
2022-11-04T07:51:17.394Z,9.30
2022-11-04T07:53:44.634Z,9.30
2022-11-04T07:56:13.237Z,9.40
2022-11-04T07:58:41.865Z,9.40
2022-11-04T08:01:11.414Z,9.40
2022-11-04T08:03:38.606Z,9.40
2022-11-04T08:06:07.288Z,9.30
2022-11-04T08:08:34.989Z,9.40
2022-11-04T08:11:05.680Z,9.40
2022-11-04T08:13:35.551Z,9.40
2022-11-04T08:16:05.142Z,9.50
2022-11-04T08:18:33.793Z,9.50
2022-11-04T08:21:02.499Z,9.50
2022-11-04T08:23:29.603Z,9.50
2022-11-04T08:25:57.406Z,9.60
2022-11-04T08:28:24.930Z,9.60
2022-11-04T08:30:56.734Z,9.60
2022-11-04T08:33:27.960Z,9.60
2022-11-04T08:35:58.877Z,9.60
2022-11-04T08:38:25.849Z,9.60
2022-11-04T08:40:58.562Z,9.60
2022-11-04T08:43:27.138Z,9.70
2022-11-04T08:45:54.070Z,9.70
2022-11-04T08:48:21.395Z,9.70
2022-11-04T08:50:53.681Z,9.70
2022-11-04T08:53:21.113Z,9.80
2022-11-04T08:55:48.838Z,9.80
2022-11-04T08:58:16.333Z,9.80
2022-11-04T09:00:44.115Z,9.90
2022-11-04T09:03:11.484Z,9.90
2022-11-04T09:05:47.748Z,9.90
2022-11-04T09:08:16.856Z,9.90
2022-11-04T09:10:44.856Z,9.90
2022-11-04T09:13:12.453Z,10.00
2022-11-04T09:15:40.052Z,10.00
2022-11-04T09:18:07.541Z,10.00
2022-11-04T09:20:35.090Z,10.00
2022-11-04T09:23:01.987Z,10.00
2022-11-04T09:25:28.807Z,10.00
2022-11-04T09:27:55.763Z,10.00
2022-11-04T09:30:22.612Z,10.00
2022-11-04T09:32:52.705Z,10.00
2022-11-04T09:35:20.297Z,10.10
2022-11-04T09:37:47.184Z,10.20
2022-11-04T09:40:17.809Z,10.20
2022-11-04T09:42:59.785Z,10.30
2022-11-04T09:45:31.875Z,10.40
2022-11-04T09:48:03.501Z,10.40
2022-11-04T09:50:45.367Z,10.40
2022-11-04T09:53:24.426Z,10.40
2022-11-04T09:55:57.326Z,10.40
2022-11-04T09:58:24.794Z,10.40
2022-11-04T10:01:04.725Z,10.40
2022-11-04T10:03:59.632Z,10.30
2022-11-04T10:07:01.558Z,10.30
2022-11-04T10:09:55.691Z,10.20
2022-11-04T10:12:34.499Z,10.20
2022-11-04T10:15:33.619Z,10.30
2022-11-04T10:18:26.299Z,10.30
2022-11-04T10:21:16.161Z,10.40
2022-11-04T10:24:08.509Z,10.40
2022-11-04T10:27:01.269Z,10.40
2022-11-04T10:29:43.410Z,10.50
2022-11-04T10:32:26.801Z,10.50
2022-11-04T10:34:58.981Z,10.60
2022-11-04T10:37:26.651Z,10.70
2022-11-04T10:40:16.745Z,10.80
2022-11-04T10:42:43.655Z,10.90
2022-11-04T10:45:12.790Z,11.10
2022-11-04T10:48:00.383Z,11.30
2022-11-04T10:50:39.260Z,11.40
2022-11-04T10:53:13.777Z,11.40
2022-11-04T10:56:07.080Z,11.40
2022-11-04T10:58:42.876Z,11.50
2022-11-04T11:01:33.942Z,11.60
2022-11-04T11:04:08.750Z,11.80
2022-11-04T11:06:36.762Z,11.70
2022-11-04T11:09:14.466Z,11.70
2022-11-04T11:11:48.242Z,11.80
2022-11-04T11:14:28.444Z,11.80
2022-11-04T11:17:19.067Z,11.90
2022-11-04T11:19:50.881Z,12.00
2022-11-04T11:22:40.049Z,12.00
2022-11-04T11:25:29.866Z,12.10
2022-11-04T11:28:01.494Z,12.30
2022-11-04T11:30:32.123Z,12.60
2022-11-04T11:33:08.252Z,12.70
2022-11-04T11:35:42.197Z,12.80
2022-11-04T11:38:21.117Z,12.70
2022-11-04T11:41:23.213Z,12.80
2022-11-04T11:43:50.956Z,12.90
2022-11-04T11:46:27.812Z,12.80
2022-11-04T11:49:03.276Z,12.80
2022-11-04T11:51:50.262Z,12.90
2022-11-04T11:54:35.192Z,13.00
2022-11-04T11:57:15.964Z,13.20
2022-11-04T12:02:50.287Z,13.20
2022-11-04T12:11:39.629Z,13.00
2022-11-04T12:14:16.872Z,13.10
2022-11-04T12:17:15.930Z,13.10
2022-11-04T12:20:10.193Z,13.10
2022-11-04T12:22:45.234Z,13.00
2022-11-04T12:25:37.506Z,13.00
2022-11-04T12:28:22.330Z,13.10
2022-11-04T12:31:15.614Z,12.90
2022-11-04T12:33:49.512Z,12.90
2022-11-04T12:36:44.105Z,12.90
2022-11-04T12:39:19.988Z,12.90
2022-11-04T12:45:07.912Z,12.70
2022-11-04T12:47:46.401Z,12.60
2022-11-04T12:50:46.925Z,12.50
2022-11-04T12:53:21.958Z,12.50
2022-11-04T12:55:54.228Z,12.50
2022-11-04T12:58:51.079Z,12.50
2022-11-04T13:01:56.294Z,12.50
2022-11-04T13:04:29.630Z,12.50
2022-11-04T13:07:10.497Z,12.50
2022-11-04T13:09:44.157Z,12.50
2022-11-04T13:12:21.235Z,12.50
2022-11-04T13:14:55.617Z,12.50
2022-11-04T13:17:29.597Z,12.50
2022-11-04T13:20:27.754Z,12.40
2022-11-04T13:23:02.970Z,12.40
2022-11-04T13:25:51.477Z,12.30
2022-11-04T13:28:20.832Z,12.40
2022-11-04T13:31:00.829Z,12.40
2022-11-04T13:33:30.678Z,12.30
2022-11-04T13:36:07.425Z,12.30
2022-11-04T13:39:10.852Z,12.30
2022-11-04T13:42:20.182Z,12.30
2022-11-04T13:44:53.321Z,12.20
2022-11-04T13:47:36.047Z,12.20
2022-11-04T13:50:03.593Z,12.30
2022-11-04T13:52:32.702Z,12.20
2022-11-04T13:55:06.965Z,12.20
2022-11-04T13:58:00.079Z,12.20
2022-11-04T14:01:07.167Z,12.20
2022-11-04T14:03:36.975Z,12.20
2022-11-04T14:06:07.772Z,12.20
2022-11-04T14:08:35.301Z,12.20
2022-11-04T14:11:09.135Z,12.20
2022-11-04T14:13:41.223Z,12.20
2022-11-04T14:16:17.856Z,12.10
2022-11-04T14:18:50.077Z,12.10
2022-11-04T14:21:25.377Z,12.10
2022-11-04T14:23:55.162Z,12.00
2022-11-04T14:26:26.759Z,12.00
2022-11-04T14:29:16.299Z,12.00
2022-11-04T14:31:47.330Z,11.90
2022-11-04T14:34:35.775Z,11.90
2022-11-04T14:37:15.932Z,11.80
2022-11-04T14:39:43.555Z,11.80
2022-11-04T14:42:14.726Z,11.70
2022-11-04T14:44:50.030Z,11.80
2022-11-04T14:47:21.976Z,11.70
2022-11-04T14:49:50.505Z,11.70
2022-11-04T14:52:20.168Z,11.70
2022-11-04T14:54:47.685Z,11.60
2022-11-04T14:57:17.389Z,11.60
2022-11-04T14:59:44.875Z,11.60
2022-11-04T15:02:19.818Z,11.50
2022-11-04T15:04:59.530Z,11.50
2022-11-04T15:07:38.462Z,11.40
2022-11-04T15:10:21.581Z,11.50
2022-11-04T15:12:52.054Z,11.40
2022-11-04T15:15:36.251Z,11.40
2022-11-04T15:18:09.180Z,11.40
2022-11-04T15:21:04.057Z,11.40
2022-11-04T15:23:36.689Z,11.40
2022-11-04T15:26:05.142Z,11.40
2022-11-04T15:28:40.839Z,11.40
2022-11-04T15:31:13.658Z,11.40
2022-11-04T15:33:44.438Z,11.40
2022-11-04T15:36:31.958Z,11.40
2022-11-04T15:39:00.184Z,11.40
2022-11-04T15:41:48.467Z,11.40
2022-11-04T15:44:22.617Z,11.40
2022-11-04T15:46:58.554Z,11.40
2022-11-04T15:49:28.136Z,11.30
2022-11-04T15:52:05.659Z,11.30
2022-11-04T20:49:59.451Z,10.60
2022-11-04T20:52:30.096Z,10.60
2022-11-04T20:54:56.937Z,10.60
2022-11-04T20:57:23.945Z,10.60
2022-11-04T20:59:50.805Z,10.60
2022-11-04T21:02:17.792Z,10.60
2022-11-04T21:04:44.781Z,10.50
2022-11-04T21:07:11.914Z,10.50
2022-11-04T21:09:38.847Z,10.50
2022-11-04T21:12:06.094Z,10.50
2022-11-04T21:14:35.155Z,10.40
2022-11-04T21:17:03.426Z,10.40
2022-11-04T21:19:30.555Z,10.40
2022-11-04T21:21:57.503Z,10.40
2022-11-04T21:24:24.506Z,10.40
2022-11-04T21:26:51.391Z,10.40
2022-11-04T21:29:19.912Z,10.40
2022-11-04T21:31:48.018Z,10.40
2022-11-04T21:34:15.331Z,10.40
2022-11-04T21:36:42.396Z,10.50
2022-11-04T21:39:11.204Z,10.40
2022-11-04T21:41:38.242Z,10.50
2022-11-04T21:44:08.434Z,10.50
2022-11-04T21:46:35.782Z,10.40
2022-11-04T21:49:03.203Z,10.40
2022-11-04T21:51:32.246Z,10.40
2022-11-04T21:54:00.055Z,10.40
2022-11-04T21:56:34.068Z,10.40
